sensor_id;sensor_type;location;lat;lon;timestamp;temperature;humidity
9399;DHT22;4739;49.334;8.792;2022-12-18T00:02:07;-8.40;99.90
9399;DHT22;4739;49.334;8.792;2022-12-18T00:04:35;-8.40;99.90
9399;DHT22;4739;49.334;8.792;2022-12-18T00:07:02;-8.40;99.90
9399;DHT22;4739;49.334;8.792;2022-12-18T00:09:28;-8.50;99.90
9399;DHT22;4739;49.334;8.792;2022-12-18T00:11:54;-8.40;99.90
9399;DHT22;4739;49.334;8.792;2022-12-18T00:14:20;-8.40;99.90
9399;DHT22;4739;49.334;8.792;2022-12-18T00:16:47;-8.40;99.90
9399;DHT22;4739;49.334;8.792;2022-12-18T00:19:13;-8.40;99.90
9399;DHT22;4739;49.334;8.792;2022-12-18T00:21:41;-8.40;99.90
9399;DHT22;4739;49.334;8.792;2022-12-18T00:24:07;-8.30;99.90
9399;DHT22;4739;49.334;8.792;2022-12-18T00:26:34;-8.30;99.90
9399;DHT22;4739;49.334;8.792;2022-12-18T00:29:05;-8.40;99.90
9399;DHT22;4739;49.334;8.792;2022-12-18T00:31:33;-8.40;99.90
9399;DHT22;4739;49.334;8.792;2022-12-18T00:33:58;-8.40;99.90
9399;DHT22;4739;49.334;8.792;2022-12-18T00:36:26;-8.40;99.90
9399;DHT22;4739;49.334;8.792;2022-12-18T00:38:56;-8.40;99.90
9399;DHT22;4739;49.334;8.792;2022-12-18T00:41:25;-8.40;99.90
9399;DHT22;4739;49.334;8.792;2022-12-18T00:44:11;-8.40;99.90
9399;DHT22;4739;49.334;8.792;2022-12-18T00:46:38;-8.40;99.90
9399;DHT22;4739;49.334;8.792;2022-12-18T00:49:03;-8.30;99.90
9399;DHT22;4739;49.334;8.792;2022-12-18T00:51:29;-8.30;99.90
9399;DHT22;4739;49.334;8.792;2022-12-18T00:53:55;-8.30;99.90
9399;DHT22;4739;49.334;8.792;2022-12-18T00:56:23;-8.30;99.90
9399;DHT22;4739;49.334;8.792;2022-12-18T00:58:49;-8.30;99.90
9399;DHT22;4739;49.334;8.792;2022-12-18T01:01:15;-8.30;99.90
9399;DHT22;4739;49.334;8.792;2022-12-18T01:03:42;-8.20;99.90
9399;DHT22;4739;49.334;8.792;2022-12-18T01:06:11;-8.30;99.90
9399;DHT22;4739;49.334;8.792;2022-12-18T01:08:37;-8.30;99.90
9399;DHT22;4739;49.334;8.792;2022-12-18T01:11:14;-8.40;99.90
9399;DHT22;4739;49.334;8.792;2022-12-18T01:13:40;-8.30;99.90
9399;DHT22;4739;49.334;8.792;2022-12-18T01:16:07;-8.30;99.90
9399;DHT22;4739;49.334;8.792;2022-12-18T01:18:34;-8.40;99.90
9399;DHT22;4739;49.334;8.792;2022-12-18T01:21:00;-8.30;99.90
9399;DHT22;4739;49.334;8.792;2022-12-18T01:23:30;-8.30;99.90
9399;DHT22;4739;49.334;8.792;2022-12-18T01:25:55;-8.30;99.90
9399;DHT22;4739;49.334;8.792;2022-12-18T01:28:21;-8.30;99.90
9399;DHT22;4739;49.334;8.792;2022-12-18T01:30:48;-8.30;99.90
9399;DHT22;4739;49.334;8.792;2022-12-18T01:33:15;-8.30;99.90
9399;DHT22;4739;49.334;8.792;2022-12-18T01:35:42;-8.20;99.90
9399;DHT22;4739;49.334;8.792;2022-12-18T01:38:08;-8.20;99.90
9399;DHT22;4739;49.334;8.792;2022-12-18T01:40:34;-8.20;99.90
9399;DHT22;4739;49.334;8.792;2022-12-18T01:43:02;-8.20;99.90
9399;DHT22;4739;49.334;8.792;2022-12-18T01:45:31;-8.20;99.90
9399;DHT22;4739;49.334;8.792;2022-12-18T01:48:04;-8.30;99.90
9399;DHT22;4739;49.334;8.792;2022-12-18T01:50:42;-8.20;99.90
9399;DHT22;4739;49.334;8.792;2022-12-18T01:53:14;-8.20;99.90
9399;DHT22;4739;49.334;8.792;2022-12-18T01:55:45;-8.30;99.90
9399;DHT22;4739;49.334;8.792;2022-12-18T01:58:14;-8.20;99.90
9399;DHT22;4739;49.334;8.792;2022-12-18T02:00:41;-8.30;99.90
9399;DHT22;4739;49.334;8.792;2022-12-18T02:03:07;-8.30;99.90
9399;DHT22;4739;49.334;8.792;2022-12-18T02:08:25;-8.30;99.90
9399;DHT22;4739;49.334;8.792;2022-12-18T02:11:18;-8.30;99.90
9399;DHT22;4739;49.334;8.792;2022-12-18T02:13:58;-8.30;99.90
9399;DHT22;4739;49.334;8.792;2022-12-18T02:16:39;-8.20;99.90
9399;DHT22;4739;49.334;8.792;2022-12-18T02:19:39;-8.20;99.90
9399;DHT22;4739;49.334;8.792;2022-12-18T02:27:37;-8.20;99.90
9399;DHT22;4739;49.334;8.792;2022-12-18T02:30:04;-8.30;99.90
9399;DHT22;4739;49.334;8.792;2022-12-18T02:32:45;-8.40;99.90
9399;DHT22;4739;49.334;8.792;2022-12-18T02:35:20;-8.30;99.90
9399;DHT22;4739;49.334;8.792;2022-12-18T02:37:47;-8.30;99.90
9399;DHT22;4739;49.334;8.792;2022-12-18T02:40:14;-8.20;99.90
9399;DHT22;4739;49.334;8.792;2022-12-18T02:42:41;-8.30;99.90
9399;DHT22;4739;49.334;8.792;2022-12-18T02:45:06;-8.30;99.90
9399;DHT22;4739;49.334;8.792;2022-12-18T02:47:36;-8.40;99.90
9399;DHT22;4739;49.334;8.792;2022-12-18T02:50:12;-8.40;99.90
9399;DHT22;4739;49.334;8.792;2022-12-18T02:56:07;-8.20;99.90
9399;DHT22;4739;49.334;8.792;2022-12-18T02:58:47;-8.30;99.90
9399;DHT22;4739;49.334;8.792;2022-12-18T03:04:01;-8.30;99.90
9399;DHT22;4739;49.334;8.792;2022-12-18T03:06:33;-8.30;99.90
9399;DHT22;4739;49.334;8.792;2022-12-18T03:09:14;-8.40;99.90
9399;DHT22;4739;49.334;8.792;2022-12-18T03:11:43;-8.40;99.90
9399;DHT22;4739;49.334;8.792;2022-12-18T03:14:30;-8.40;99.90
9399;DHT22;4739;49.334;8.792;2022-12-18T03:17:00;-8.30;99.90
9399;DHT22;4739;49.334;8.792;2022-12-18T03:19:31;-8.10;99.90
9399;DHT22;4739;49.334;8.792;2022-12-18T03:22:01;-7.90;99.90
9399;DHT22;4739;49.334;8.792;2022-12-18T03:24:29;-8.00;99.90
9399;DHT22;4739;49.334;8.792;2022-12-18T03:27:08;-8.10;99.90
9399;DHT22;4739;49.334;8.792;2022-12-18T03:29:38;-8.30;99.90
9399;DHT22;4739;49.334;8.792;2022-12-18T03:32:09;-8.20;99.90
9399;DHT22;4739;49.334;8.792;2022-12-18T03:34:38;-8.20;99.90
9399;DHT22;4739;49.334;8.792;2022-12-18T03:37:06;-8.20;99.90
9399;DHT22;4739;49.334;8.792;2022-12-18T03:39:34;-8.20;99.90
9399;DHT22;4739;49.334;8.792;2022-12-18T03:42:25;-8.30;99.90
9399;DHT22;4739;49.334;8.792;2022-12-18T03:45:09;-8.20;99.90
9399;DHT22;4739;49.334;8.792;2022-12-18T03:50:29;-8.20;99.90
9399;DHT22;4739;49.334;8.792;2022-12-18T03:53:17;-8.30;99.90
9399;DHT22;4739;49.334;8.792;2022-12-18T03:55:48;-8.30;99.90
9399;DHT22;4739;49.334;8.792;2022-12-18T03:58:17;-8.30;99.90
9399;DHT22;4739;49.334;8.792;2022-12-18T04:00:44;-8.10;99.90
9399;DHT22;4739;49.334;8.792;2022-12-18T04:03:15;-8.00;99.90
9399;DHT22;4739;49.334;8.792;2022-12-18T04:05:43;-8.00;99.90
9399;DHT22;4739;49.334;8.792;2022-12-18T04:08:09;-8.10;99.90
9399;DHT22;4739;49.334;8.792;2022-12-18T04:10:36;-8.10;99.90
9399;DHT22;4739;49.334;8.792;2022-12-18T04:13:02;-8.20;99.90
9399;DHT22;4739;49.334;8.792;2022-12-18T04:15:29;-8.20;99.90
9399;DHT22;4739;49.334;8.792;2022-12-18T04:17:55;-8.20;99.90
9399;DHT22;4739;49.334;8.792;2022-12-18T04:20:21;-8.30;99.90
9399;DHT22;4739;49.334;8.792;2022-12-18T04:22:46;-8.30;99.90
9399;DHT22;4739;49.334;8.792;2022-12-18T04:25:13;-8.30;99.90
9399;DHT22;4739;49.334;8.792;2022-12-18T04:27:38;-8.30;99.90
9399;DHT22;4739;49.334;8.792;2022-12-18T04:30:04;-8.40;99.90
9399;DHT22;4739;49.334;8.792;2022-12-18T04:32:33;-8.30;99.90
9399;DHT22;4739;49.334;8.792;2022-12-18T04:34:59;-8.30;99.90
9399;DHT22;4739;49.334;8.792;2022-12-18T04:37:24;-8.30;99.90
9399;DHT22;4739;49.334;8.792;2022-12-18T04:39:50;-8.30;99.90
9399;DHT22;4739;49.334;8.792;2022-12-18T04:42:15;-8.40;99.90
9399;DHT22;4739;49.334;8.792;2022-12-18T04:44:41;-8.30;99.90
9399;DHT22;4739;49.334;8.792;2022-12-18T04:47:06;-8.30;99.90
9399;DHT22;4739;49.334;8.792;2022-12-18T04:49:32;-8.20;99.90
9399;DHT22;4739;49.334;8.792;2022-12-18T04:51:58;-8.10;99.90
9399;DHT22;4739;49.334;8.792;2022-12-18T04:54:24;-8.10;99.90
9399;DHT22;4739;49.334;8.792;2022-12-18T04:56:52;-7.90;99.90
9399;DHT22;4739;49.334;8.792;2022-12-18T04:59:18;-8.00;99.90
9399;DHT22;4739;49.334;8.792;2022-12-18T05:01:44;-8.10;99.90
9399;DHT22;4739;49.334;8.792;2022-12-18T05:04:11;-8.10;99.90
9399;DHT22;4739;49.334;8.792;2022-12-18T05:06:36;-8.20;99.90
9399;DHT22;4739;49.334;8.792;2022-12-18T05:09:02;-8.30;99.90
9399;DHT22;4739;49.334;8.792;2022-12-18T05:11:27;-8.40;99.90
9399;DHT22;4739;49.334;8.792;2022-12-18T05:13:53;-8.40;99.90
9399;DHT22;4739;49.334;8.792;2022-12-18T05:16:20;-8.40;99.90
9399;DHT22;4739;49.334;8.792;2022-12-18T05:18:46;-8.30;99.90
9399;DHT22;4739;49.334;8.792;2022-12-18T05:21:12;-8.30;99.90
9399;DHT22;4739;49.334;8.792;2022-12-18T05:23:38;-8.30;99.90
9399;DHT22;4739;49.334;8.792;2022-12-18T05:26:06;-8.30;99.90
9399;DHT22;4739;49.334;8.792;2022-12-18T05:28:34;-8.30;99.90
9399;DHT22;4739;49.334;8.792;2022-12-18T05:31:01;-8.20;99.90
9399;DHT22;4739;49.334;8.792;2022-12-18T05:33:31;-8.10;99.90
9399;DHT22;4739;49.334;8.792;2022-12-18T05:35:59;-8.10;99.90
9399;DHT22;4739;49.334;8.792;2022-12-18T05:38:27;-8.10;99.90
9399;DHT22;4739;49.334;8.792;2022-12-18T05:40:53;-8.10;99.90
9399;DHT22;4739;49.334;8.792;2022-12-18T05:43:20;-8.20;99.90
9399;DHT22;4739;49.334;8.792;2022-12-18T05:45:47;-8.30;99.90
9399;DHT22;4739;49.334;8.792;2022-12-18T05:48:15;-8.30;99.90
9399;DHT22;4739;49.334;8.792;2022-12-18T05:50:42;-8.30;99.90
9399;DHT22;4739;49.334;8.792;2022-12-18T05:53:09;-8.20;99.90
9399;DHT22;4739;49.334;8.792;2022-12-18T05:55:39;-8.10;99.90
9399;DHT22;4739;49.334;8.792;2022-12-18T05:58:07;-8.10;99.90
9399;DHT22;4739;49.334;8.792;2022-12-18T06:00:34;-8.10;99.90
9399;DHT22;4739;49.334;8.792;2022-12-18T06:03:03;-8.00;99.90
9399;DHT22;4739;49.334;8.792;2022-12-18T06:05:29;-8.10;99.90
9399;DHT22;4739;49.334;8.792;2022-12-18T06:07:59;-8.10;99.90
9399;DHT22;4739;49.334;8.792;2022-12-18T06:10:27;-8.10;99.90
9399;DHT22;4739;49.334;8.792;2022-12-18T06:12:54;-8.00;99.90
9399;DHT22;4739;49.334;8.792;2022-12-18T06:15:19;-7.90;99.90
9399;DHT22;4739;49.334;8.792;2022-12-18T06:17:45;-8.00;99.90
9399;DHT22;4739;49.334;8.792;2022-12-18T06:20:11;-8.10;99.90
9399;DHT22;4739;49.334;8.792;2022-12-18T06:22:37;-8.10;99.90
9399;DHT22;4739;49.334;8.792;2022-12-18T06:25:03;-8.10;99.90
9399;DHT22;4739;49.334;8.792;2022-12-18T06:27:28;-8.10;99.90
9399;DHT22;4739;49.334;8.792;2022-12-18T06:29:54;-7.90;99.90
9399;DHT22;4739;49.334;8.792;2022-12-18T06:32:20;-7.90;99.90
9399;DHT22;4739;49.334;8.792;2022-12-18T06:37:23;-7.80;99.90
9399;DHT22;4739;49.334;8.792;2022-12-18T06:39:53;-7.80;99.90
9399;DHT22;4739;49.334;8.792;2022-12-18T06:42:19;-7.70;99.90
9399;DHT22;4739;49.334;8.792;2022-12-18T06:44:44;-7.70;99.90
9399;DHT22;4739;49.334;8.792;2022-12-18T06:47:10;-7.60;99.90
9399;DHT22;4739;49.334;8.792;2022-12-18T06:49:37;-7.80;99.90
9399;DHT22;4739;49.334;8.792;2022-12-18T06:52:02;-7.90;99.90
9399;DHT22;4739;49.334;8.792;2022-12-18T06:54:29;-7.90;99.90
9399;DHT22;4739;49.334;8.792;2022-12-18T06:56:55;-7.80;99.90
9399;DHT22;4739;49.334;8.792;2022-12-18T06:59:21;-7.90;99.90
9399;DHT22;4739;49.334;8.792;2022-12-18T07:01:47;-7.80;99.90
9399;DHT22;4739;49.334;8.792;2022-12-18T07:04:13;-7.70;99.90
9399;DHT22;4739;49.334;8.792;2022-12-18T07:06:38;-7.70;99.90
9399;DHT22;4739;49.334;8.792;2022-12-18T07:09:04;-7.50;99.90
9399;DHT22;4739;49.334;8.792;2022-12-18T07:11:29;-7.50;99.90
9399;DHT22;4739;49.334;8.792;2022-12-18T07:13:57;-7.50;99.90
9399;DHT22;4739;49.334;8.792;2022-12-18T07:16:22;-7.40;99.90
9399;DHT22;4739;49.334;8.792;2022-12-18T07:18:50;-7.30;99.90
9399;DHT22;4739;49.334;8.792;2022-12-18T07:21:19;-7.10;99.90
9399;DHT22;4739;49.334;8.792;2022-12-18T07:23:45;-7.00;99.90
9399;DHT22;4739;49.334;8.792;2022-12-18T07:26:14;-6.80;99.90
9399;DHT22;4739;49.334;8.792;2022-12-18T07:28:41;-6.80;99.90
9399;DHT22;4739;49.334;8.792;2022-12-18T07:31:14;-6.70;99.90
9399;DHT22;4739;49.334;8.792;2022-12-18T07:33:40;-6.70;99.90
9399;DHT22;4739;49.334;8.792;2022-12-18T07:36:07;-6.60;99.90
9399;DHT22;4739;49.334;8.792;2022-12-18T07:38:33;-6.50;99.90
9399;DHT22;4739;49.334;8.792;2022-12-18T07:41:04;-6.50;99.90
9399;DHT22;4739;49.334;8.792;2022-12-18T07:43:30;-6.50;99.90
9399;DHT22;4739;49.334;8.792;2022-12-18T07:45:57;-6.30;99.90
9399;DHT22;4739;49.334;8.792;2022-12-18T07:48:23;-6.30;99.90
9399;DHT22;4739;49.334;8.792;2022-12-18T07:50:48;-6.40;99.90
9399;DHT22;4739;49.334;8.792;2022-12-18T07:53:18;-6.20;99.90
9399;DHT22;4739;49.334;8.792;2022-12-18T07:55:44;-6.30;99.90
9399;DHT22;4739;49.334;8.792;2022-12-18T07:58:10;-6.20;99.90
9399;DHT22;4739;49.334;8.792;2022-12-18T08:00:35;-6.10;99.90
9399;DHT22;4739;49.334;8.792;2022-12-18T08:03:01;-6.00;99.90
9399;DHT22;4739;49.334;8.792;2022-12-18T08:05:28;-6.20;99.90
9399;DHT22;4739;49.334;8.792;2022-12-18T08:07:55;-6.30;99.90
9399;DHT22;4739;49.334;8.792;2022-12-18T08:10:22;-6.20;99.90
9399;DHT22;4739;49.334;8.792;2022-12-18T08:12:51;-6.10;99.90
9399;DHT22;4739;49.334;8.792;2022-12-18T08:15:17;-6.00;99.90
9399;DHT22;4739;49.334;8.792;2022-12-18T08:17:42;-6.00;99.90
9399;DHT22;4739;49.334;8.792;2022-12-18T08:20:08;-6.00;99.90
9399;DHT22;4739;49.334;8.792;2022-12-18T08:22:35;-6.00;99.90
9399;DHT22;4739;49.334;8.792;2022-12-18T08:25:01;-6.00;99.90
9399;DHT22;4739;49.334;8.792;2022-12-18T08:27:26;-6.00;99.90
9399;DHT22;4739;49.334;8.792;2022-12-18T08:29:52;-5.90;99.90
9399;DHT22;4739;49.334;8.792;2022-12-18T08:32:18;-5.90;99.90
9399;DHT22;4739;49.334;8.792;2022-12-18T08:37:12;-5.80;99.90
9399;DHT22;4739;49.334;8.792;2022-12-18T08:39:37;-5.70;99.90
9399;DHT22;4739;49.334;8.792;2022-12-18T08:42:03;-5.70;99.90
9399;DHT22;4739;49.334;8.792;2022-12-18T08:44:50;-5.60;99.90
9399;DHT22;4739;49.334;8.792;2022-12-18T08:47:16;-5.70;99.90
9399;DHT22;4739;49.334;8.792;2022-12-18T08:49:42;-5.60;99.90
9399;DHT22;4739;49.334;8.792;2022-12-18T08:52:08;-5.60;99.90
9399;DHT22;4739;49.334;8.792;2022-12-18T08:54:34;-5.70;99.90
9399;DHT22;4739;49.334;8.792;2022-12-18T08:56:59;-5.90;99.90
9399;DHT22;4739;49.334;8.792;2022-12-18T08:59:25;-5.80;99.90
9399;DHT22;4739;49.334;8.792;2022-12-18T09:01:53;-5.90;99.90
9399;DHT22;4739;49.334;8.792;2022-12-18T09:04:19;-5.80;99.90
9399;DHT22;4739;49.334;8.792;2022-12-18T09:06:45;-5.60;99.90
9399;DHT22;4739;49.334;8.792;2022-12-18T09:09:11;-5.50;99.90
9399;DHT22;4739;49.334;8.792;2022-12-18T09:11:37;-5.40;99.90
9399;DHT22;4739;49.334;8.792;2022-12-18T09:14:02;-5.50;99.90
9399;DHT22;4739;49.334;8.792;2022-12-18T09:16:29;-5.50;99.90
9399;DHT22;4739;49.334;8.792;2022-12-18T09:18:55;-5.50;99.90
9399;DHT22;4739;49.334;8.792;2022-12-18T09:21:27;-5.40;99.90
9399;DHT22;4739;49.334;8.792;2022-12-18T09:23:54;-5.30;99.90
9399;DHT22;4739;49.334;8.792;2022-12-18T09:26:21;-5.30;99.90
9399;DHT22;4739;49.334;8.792;2022-12-18T09:28:47;-5.20;99.90
9399;DHT22;4739;49.334;8.792;2022-12-18T09:31:15;-5.20;99.90
9399;DHT22;4739;49.334;8.792;2022-12-18T09:33:41;-5.10;99.90
9399;DHT22;4739;49.334;8.792;2022-12-18T09:36:09;-5.20;99.90
9399;DHT22;4739;49.334;8.792;2022-12-18T09:38:35;-5.10;99.90
9399;DHT22;4739;49.334;8.792;2022-12-18T09:41:28;-5.10;99.90
9399;DHT22;4739;49.334;8.792;2022-12-18T09:44:01;-5.10;99.90
9399;DHT22;4739;49.334;8.792;2022-12-18T09:46:32;-5.10;99.90
9399;DHT22;4739;49.334;8.792;2022-12-18T09:49:02;-4.90;99.90
9399;DHT22;4739;49.334;8.792;2022-12-18T09:51:34;-5.00;99.90
9399;DHT22;4739;49.334;8.792;2022-12-18T09:54:11;-4.90;99.90
9399;DHT22;4739;49.334;8.792;2022-12-18T09:56:41;-4.80;99.90
9399;DHT22;4739;49.334;8.792;2022-12-18T09:59:33;-4.80;99.90
9399;DHT22;4739;49.334;8.792;2022-12-18T10:02:22;-4.70;99.90
9399;DHT22;4739;49.334;8.792;2022-12-18T10:08:23;-4.40;99.90
9399;DHT22;4739;49.334;8.792;2022-12-18T10:11:01;-4.30;99.90
9399;DHT22;4739;49.334;8.792;2022-12-18T10:13:42;-4.20;99.90
9399;DHT22;4739;49.334;8.792;2022-12-18T10:16:17;-4.20;99.90
9399;DHT22;4739;49.334;8.792;2022-12-18T10:21:38;-4.20;99.90
9399;DHT22;4739;49.334;8.792;2022-12-18T10:24:24;-4.00;99.90
9399;DHT22;4739;49.334;8.792;2022-12-18T10:27:04;-4.00;99.90
9399;DHT22;4739;49.334;8.792;2022-12-18T10:29:34;-3.80;99.90
9399;DHT22;4739;49.334;8.792;2022-12-18T10:31:59;-3.60;99.90
9399;DHT22;4739;49.334;8.792;2022-12-18T10:34:25;-3.50;99.90
9399;DHT22;4739;49.334;8.792;2022-12-18T10:36:51;-3.50;99.90
9399;DHT22;4739;49.334;8.792;2022-12-18T10:39:23;-3.30;99.90
9399;DHT22;4739;49.334;8.792;2022-12-18T10:41:50;-3.20;99.90
9399;DHT22;4739;49.334;8.792;2022-12-18T10:44:23;-3.00;99.90
9399;DHT22;4739;49.334;8.792;2022-12-18T10:46:56;-3.10;99.90
9399;DHT22;4739;49.334;8.792;2022-12-18T10:49:33;-3.10;99.90
9399;DHT22;4739;49.334;8.792;2022-12-18T10:52:17;-2.90;99.90
9399;DHT22;4739;49.334;8.792;2022-12-18T10:54:51;-2.70;99.90
9399;DHT22;4739;49.334;8.792;2022-12-18T10:57:34;-2.50;99.90
9399;DHT22;4739;49.334;8.792;2022-12-18T11:00:33;-2.50;99.90
9399;DHT22;4739;49.334;8.792;2022-12-18T11:03:01;-2.60;99.90
9399;DHT22;4739;49.334;8.792;2022-12-18T11:05:31;-2.40;99.90
9399;DHT22;4739;49.334;8.792;2022-12-18T11:07:59;-2.20;99.90
9399;DHT22;4739;49.334;8.792;2022-12-18T11:10:33;-2.10;99.90
9399;DHT22;4739;49.334;8.792;2022-12-18T11:13:21;-1.90;99.90
9399;DHT22;4739;49.334;8.792;2022-12-18T11:15:47;-1.90;99.90
9399;DHT22;4739;49.334;8.792;2022-12-18T11:18:38;-1.80;99.90
9399;DHT22;4739;49.334;8.792;2022-12-18T11:21:09;-1.70;99.90
9399;DHT22;4739;49.334;8.792;2022-12-18T11:23:50;-1.60;99.90
9399;DHT22;4739;49.334;8.792;2022-12-18T11:26:18;-1.70;99.90
9399;DHT22;4739;49.334;8.792;2022-12-18T11:28:49;-1.60;99.90
9399;DHT22;4739;49.334;8.792;2022-12-18T11:31:26;-1.60;99.90
9399;DHT22;4739;49.334;8.792;2022-12-18T11:34:26;-1.50;99.90
9399;DHT22;4739;49.334;8.792;2022-12-18T11:36:51;-1.50;99.90
9399;DHT22;4739;49.334;8.792;2022-12-18T11:39:30;-1.50;99.90
9399;DHT22;4739;49.334;8.792;2022-12-18T11:42:08;-1.40;99.90
9399;DHT22;4739;49.334;8.792;2022-12-18T11:47:28;-1.40;99.90
9399;DHT22;4739;49.334;8.792;2022-12-18T11:50:08;-1.20;99.90
9399;DHT22;4739;49.334;8.792;2022-12-18T11:52:40;-1.10;99.90
9399;DHT22;4739;49.334;8.792;2022-12-18T11:58:04;-1.00;99.90
9399;DHT22;4739;49.334;8.792;2022-12-18T12:00:36;-1.00;99.90
9399;DHT22;4739;49.334;8.792;2022-12-18T12:03:27;-1.10;99.90
9399;DHT22;4739;49.334;8.792;2022-12-18T12:06:19;-1.00;99.90
9399;DHT22;4739;49.334;8.792;2022-12-18T12:09:08;-0.80;99.90
9399;DHT22;4739;49.334;8.792;2022-12-18T12:17:59;-1.00;99.90
9399;DHT22;4739;49.334;8.792;2022-12-18T12:20:42;-1.00;99.90
9399;DHT22;4739;49.334;8.792;2022-12-18T12:26:11;-0.70;99.90
9399;DHT22;4739;49.334;8.792;2022-12-18T12:29:01;-0.60;99.90
9399;DHT22;4739;49.334;8.792;2022-12-18T12:31:45;-0.40;99.90
9399;DHT22;4739;49.334;8.792;2022-12-18T12:34:16;-0.30;99.90
9399;DHT22;4739;49.334;8.792;2022-12-18T12:39:35;-0.20;99.90
9399;DHT22;4739;49.334;8.792;2022-12-18T12:42:04;-0.20;99.90
9399;DHT22;4739;49.334;8.792;2022-12-18T12:44:55;-0.20;99.90
9399;DHT22;4739;49.334;8.792;2022-12-18T12:47:28;-0.10;99.90
9399;DHT22;4739;49.334;8.792;2022-12-18T12:49:57;0.00;99.90
9399;DHT22;4739;49.334;8.792;2022-12-18T12:52:35;0.10;99.90
9399;DHT22;4739;49.334;8.792;2022-12-18T12:55:05;0.10;99.90
9399;DHT22;4739;49.334;8.792;2022-12-18T12:57:37;-0.20;99.90
9399;DHT22;4739;49.334;8.792;2022-12-18T13:05:34;-0.30;99.90
9399;DHT22;4739;49.334;8.792;2022-12-18T13:08:08;-0.30;99.90
9399;DHT22;4739;49.334;8.792;2022-12-18T13:10:44;-0.30;99.90
9399;DHT22;4739;49.334;8.792;2022-12-18T13:13:11;-0.40;99.90
9399;DHT22;4739;49.334;8.792;2022-12-18T13:15:46;-0.40;99.90
9399;DHT22;4739;49.334;8.792;2022-12-18T13:18:21;-0.40;99.90
9399;DHT22;4739;49.334;8.792;2022-12-18T13:23:36;-0.30;99.90
9399;DHT22;4739;49.334;8.792;2022-12-18T13:31:28;-0.30;99.90
9399;DHT22;4739;49.334;8.792;2022-12-18T13:34:29;-0.20;99.90
9399;DHT22;4739;49.334;8.792;2022-12-18T13:37:36;-0.40;99.90
9399;DHT22;4739;49.334;8.792;2022-12-18T13:39:43;-0.20;99.90
9399;DHT22;4739;49.334;8.792;2022-12-18T13:44:57;-0.30;99.90
9399;DHT22;4739;49.334;8.792;2022-12-18T13:47:36;-0.20;99.90
9399;DHT22;4739;49.334;8.792;2022-12-18T13:50:23;-0.20;99.90
9399;DHT22;4739;49.334;8.792;2022-12-18T13:52:52;-0.10;99.90
9399;DHT22;4739;49.334;8.792;2022-12-18T13:55:20;-0.30;99.90
9399;DHT22;4739;49.334;8.792;2022-12-18T13:57:46;-0.30;99.90
9399;DHT22;4739;49.334;8.792;2022-12-18T14:00:26;-0.40;99.90
9399;DHT22;4739;49.334;8.792;2022-12-18T14:02:54;-0.20;99.90
9399;DHT22;4739;49.334;8.792;2022-12-18T14:05:23;-0.30;99.90
9399;DHT22;4739;49.334;8.792;2022-12-18T14:07:49;-0.40;99.90
9399;DHT22;4739;49.334;8.792;2022-12-18T14:10:16;-0.40;99.90
9399;DHT22;4739;49.334;8.792;2022-12-18T14:12:46;-0.50;99.90
9399;DHT22;4739;49.334;8.792;2022-12-18T14:15:32;-0.50;99.90
9399;DHT22;4739;49.334;8.792;2022-12-18T14:20:43;-0.60;99.90
9399;DHT22;4739;49.334;8.792;2022-12-18T14:23:37;-0.60;99.90
9399;DHT22;4739;49.334;8.792;2022-12-18T14:26:23;-0.70;99.90
9399;DHT22;4739;49.334;8.792;2022-12-18T14:28:58;-0.70;99.90
9399;DHT22;4739;49.334;8.792;2022-12-18T14:31:28;-0.70;99.90
9399;DHT22;4739;49.334;8.792;2022-12-18T14:33:54;-0.60;99.90
9399;DHT22;4739;49.334;8.792;2022-12-18T14:36:25;-0.50;99.90
9399;DHT22;4739;49.334;8.792;2022-12-18T14:38:53;-0.60;99.90
9399;DHT22;4739;49.334;8.792;2022-12-18T14:41:20;-0.80;99.90
9399;DHT22;4739;49.334;8.792;2022-12-18T14:43:49;-0.70;99.90
9399;DHT22;4739;49.334;8.792;2022-12-18T14:49:14;-0.60;99.90
9399;DHT22;4739;49.334;8.792;2022-12-18T14:51:48;-0.70;99.90
9399;DHT22;4739;49.334;8.792;2022-12-18T14:54:17;-0.80;99.90
9399;DHT22;4739;49.334;8.792;2022-12-18T14:56:51;-0.80;99.90
9399;DHT22;4739;49.334;8.792;2022-12-18T14:59:23;-0.90;99.90
9399;DHT22;4739;49.334;8.792;2022-12-18T15:02:15;-1.00;99.90
9399;DHT22;4739;49.334;8.792;2022-12-18T15:04:43;-1.10;99.90
9399;DHT22;4739;49.334;8.792;2022-12-18T15:07:16;-1.10;99.90
9399;DHT22;4739;49.334;8.792;2022-12-18T15:09:47;-1.20;99.90
9399;DHT22;4739;49.334;8.792;2022-12-18T15:14:59;-1.10;99.90
9399;DHT22;4739;49.334;8.792;2022-12-18T15:17:25;-1.10;99.90
9399;DHT22;4739;49.334;8.792;2022-12-18T15:19:53;-1.10;99.90
9399;DHT22;4739;49.334;8.792;2022-12-18T15:22:28;-1.10;99.90
9399;DHT22;4739;49.334;8.792;2022-12-18T15:24:56;-1.10;99.90
9399;DHT22;4739;49.334;8.792;2022-12-18T15:27:33;-1.10;99.90
9399;DHT22;4739;49.334;8.792;2022-12-18T15:32:42;-1.10;99.90
9399;DHT22;4739;49.334;8.792;2022-12-18T15:35:15;-1.20;99.90
9399;DHT22;4739;49.334;8.792;2022-12-18T15:37:41;-1.40;99.90
9399;DHT22;4739;49.334;8.792;2022-12-18T15:40:11;-1.40;99.90
9399;DHT22;4739;49.334;8.792;2022-12-18T15:42:37;-1.40;99.90
9399;DHT22;4739;49.334;8.792;2022-12-18T15:45:21;-1.40;99.90
9399;DHT22;4739;49.334;8.792;2022-12-18T15:47:47;-1.40;99.90
9399;DHT22;4739;49.334;8.792;2022-12-18T15:50:13;-1.40;99.90
9399;DHT22;4739;49.334;8.792;2022-12-18T15:52:44;-1.30;99.90
9399;DHT22;4739;49.334;8.792;2022-12-18T15:55:17;-1.30;99.90
9399;DHT22;4739;49.334;8.792;2022-12-18T15:58:01;-1.40;99.90
9399;DHT22;4739;49.334;8.792;2022-12-18T16:00:27;-1.40;99.90
9399;DHT22;4739;49.334;8.792;2022-12-18T16:02:53;-1.40;99.90
9399;DHT22;4739;49.334;8.792;2022-12-18T16:05:21;-1.50;99.90
9399;DHT22;4739;49.334;8.792;2022-12-18T16:07:47;-1.60;99.90
9399;DHT22;4739;49.334;8.792;2022-12-18T16:10:13;-1.70;99.90
9399;DHT22;4739;49.334;8.792;2022-12-18T16:12:39;-1.70;99.90
9399;DHT22;4739;49.334;8.792;2022-12-18T16:15:06;-1.60;99.90
9399;DHT22;4739;49.334;8.792;2022-12-18T16:17:33;-1.60;99.90
9399;DHT22;4739;49.334;8.792;2022-12-18T16:19:58;-1.60;99.90
9399;DHT22;4739;49.334;8.792;2022-12-18T16:22:26;-1.70;99.90
9399;DHT22;4739;49.334;8.792;2022-12-18T16:24:54;-1.70;99.90
9399;DHT22;4739;49.334;8.792;2022-12-18T16:27:21;-1.80;99.90
9399;DHT22;4739;49.334;8.792;2022-12-18T16:29:49;-1.80;99.90
9399;DHT22;4739;49.334;8.792;2022-12-18T16:32:20;-1.80;99.90
9399;DHT22;4739;49.334;8.792;2022-12-18T16:37:17;-1.60;99.90
9399;DHT22;4739;49.334;8.792;2022-12-18T16:39:43;-1.50;99.90
9399;DHT22;4739;49.334;8.792;2022-12-18T16:42:16;-1.50;99.90
9399;DHT22;4739;49.334;8.792;2022-12-18T16:44:45;-1.50;99.90
9399;DHT22;4739;49.334;8.792;2022-12-18T16:47:12;-1.50;99.90
9399;DHT22;4739;49.334;8.792;2022-12-18T16:49:41;-1.50;99.90
9399;DHT22;4739;49.334;8.792;2022-12-18T16:52:09;-1.50;99.90
9399;DHT22;4739;49.334;8.792;2022-12-18T16:54:35;-1.40;99.90
9399;DHT22;4739;49.334;8.792;2022-12-18T16:57:01;-1.50;99.90
9399;DHT22;4739;49.334;8.792;2022-12-18T16:59:27;-1.40;99.90
9399;DHT22;4739;49.334;8.792;2022-12-18T17:01:54;-1.40;99.90
9399;DHT22;4739;49.334;8.792;2022-12-18T17:04:20;-1.50;99.90
9399;DHT22;4739;49.334;8.792;2022-12-18T17:06:45;-1.50;99.90
9399;DHT22;4739;49.334;8.792;2022-12-18T17:09:19;-1.40;99.90
9399;DHT22;4739;49.334;8.792;2022-12-18T17:11:49;-1.40;99.90
9399;DHT22;4739;49.334;8.792;2022-12-18T17:14:17;-1.30;99.90
9399;DHT22;4739;49.334;8.792;2022-12-18T17:16:45;-1.30;99.90
9399;DHT22;4739;49.334;8.792;2022-12-18T17:19:11;-1.40;99.90
9399;DHT22;4739;49.334;8.792;2022-12-18T17:21:37;-1.50;99.90
9399;DHT22;4739;49.334;8.792;2022-12-18T17:24:03;-1.40;99.90
9399;DHT22;4739;49.334;8.792;2022-12-18T17:26:29;-1.40;99.90
9399;DHT22;4739;49.334;8.792;2022-12-18T17:28:58;-1.30;99.90
9399;DHT22;4739;49.334;8.792;2022-12-18T17:31:26;-1.30;99.90
9399;DHT22;4739;49.334;8.792;2022-12-18T17:33:51;-1.30;99.90
9399;DHT22;4739;49.334;8.792;2022-12-18T17:36:18;-1.40;99.90
9399;DHT22;4739;49.334;8.792;2022-12-18T17:38:52;-1.40;99.90